Pescara - LIBP

Metar : METAR LIBP 282350Z AUTO 25011KT 220V280 9999 NCD 10/00 Q0995=

Taf : TAF LIBP 282300Z 2900/2924 25012KT CAVOK BECMG 2900/2902 VRB06KT TEMPO 2909/2924 SHRA BECMG 2910/2912 34012KT=

 Scopri come leggere i bollettini codificati...


Storico

LIBP 282350Z AUTO 25011KT 220V280 9999 NCD 10/00 Q0995
LIBP 282320Z AUTO 27007KT 200V310 9999 NCD 10/M00 Q0996
LIBP 282250Z AUTO 25011KT 220V300 9999 NCD 11/M00 Q0995
LIBP 282220Z AUTO 23013KT 9999 FEW210/// 11/00 Q0995
LIBP 282150Z AUTO 25010KT 9999 BKN200/// 11/M00 Q0996
LIBP 282120Z AUTO 25010KT 9999 NCD 11/M01 Q0996
LIBP 282050Z AUTO 23012KT 9999 SCT230/// 11/M01 Q0996
LIBP 282020Z AUTO 24010KT 9999 FEW240/// 11/M01 Q0996
LIBP 281950Z AUTO 24009KT 9999 NCD 11/M01 Q0996
LIBP 281920Z AUTO 23011KT 9999 NCD 10/M01 Q0995
LIBP 281850Z AUTO 22011KT 9999 NCD 09/M00 Q0995
LIBP 281820Z AUTO 23012KT 9999 FEW150/// 11/M02 Q0995
LIBP 281750Z AUTO 24010KT 210V270 9999 NCD 12/00 Q0995
LIBP 281720Z AUTO 24009KT 9999 NCD 12/02 Q0995
LIBP 281650Z AUTO 23009KT 9999 SCT170/// 12/02 Q0995
LIBP 281620Z AUTO 23009KT 9999 BKN180/// 12/03 Q0994
LIBP 281550Z AUTO 21008KT 9999 FEW130/// 12/03 Q0994
LIBP 281520Z AUTO 21008KT 9999 BKN120/// BKN180/// 12/04 Q0994
LIBP 281450Z AUTO 22009KT 9999 SCT110/// BKN170/// 13/04 Q0993
LIBP 281420Z AUTO 21012KT 9999 OVC100/// 14/05 Q0994
LIBP 281350Z AUTO 21012KT 9999 OVC100/// 13/05 Q0994
LIBP 281320Z AUTO 22007KT 9999 FEW062/// BKN100/// 14/06 Q0994
LIBP 281250Z AUTO VRB03KT 9999 OVC064/// 14/05 Q0994
LIBP 281220Z AUTO 24007KT 200V280 9999 OVC067/// 14/05 Q0994
LIBP 281150Z AUTO 26006KT 220V310 9999 OVC064/// 15/06 Q0994
LIBP 281120Z AUTO 22007KT 180V260 9999 BKN063/// BKN140/// 15/06 Q0994
LIBP 281050Z AUTO 26005KT 220V310 9999 FEW070/// SCT110/// 16/06 Q0994
LIBP 281020Z AUTO VRB05KT 9999 OVC062/// 16/06 Q0994
LIBP 280950Z AUTO 19008KT 9999 BKN064/// 15/06 Q0995
LIBP 280920Z AUTO 20006KT 160V260 9999 NCD 15/06 Q0995
LIBP 280850Z AUTO 22009KT 9999 NCD 15/06 Q0995
LIBP 280820Z AUTO 18008KT 9999 NCD 14/05 Q0994
LIBP 280750Z AUTO 18007KT 9999 NCD 14/05 Q0994
LIBP 280720Z AUTO 17004KT 130V200 9999 NCD 13/05 Q0995
LIBP 280650Z AUTO 19003KT 160V220 9999 NCD 11/05 Q0994
LIBP 280620Z AUTO 23004KT 190V280 9999 NCD 11/05 Q0994
LIBP 280550Z AUTO 20005KT 190V250 9999 NCD 10/04 Q0995
LIBP 280520Z AUTO 23007KT 9999 NCD 12/04 Q0994
LIBP 280450Z AUTO 19005KT 9999 NCD 12/05 Q0995
LIBP 280420Z AUTO 23012KT 9999 NCD 13/05 Q0994
LIBP 280350Z AUTO 22014KT 9999 NCD 13/05 Q0995
LIBP 280320Z AUTO 22017KT 9999 NCD 13/04 Q0995
LIBP 280250Z AUTO 24016KT 9999 FEW074/// 14/04 Q0995
LIBP 280220Z AUTO 21010KT 190V250 9999 SCT077/// 13/04 Q0995
LIBP 280150Z AUTO 23010KT 9999 NCD 12/04 Q0995
LIBP 280120Z AUTO 22010KT 9999 NCD 12/04 Q0996
LIBP 280050Z AUTO 18006KT 9999 SCT074/// 12/03 Q0996
LIBP 280020Z AUTO 20004KT 9999 BKN081/// 10/04 Q0996
LIBP 272350Z AUTO VRB01KT 9999 FEW240/// 11/03 Q0996
LIBP 272320Z AUTO VRB02KT 9999 BKN220/// 13/03 Q0996
LIBP 272250Z AUTO VRB06KT 9999 FEW210/// BKN250/// 14/02 Q0997
LIBP 272220Z AUTO 24010KT 210V270 9999 BKN220/// 14/02 Q0997
LIBP 272150Z AUTO 25007KT 9999 BKN240/// 13/03 Q0997
LIBP 272120Z AUTO 25014KT 9999 NCD 14/03 Q0997
LIBP 272050Z AUTO 23017KT 9999 FEW240/// 14/02 Q0997
LIBP 272020Z AUTO 24011KT 9999 FEW240/// 14/03 Q0997
LIBP 271950Z AUTO 23012KT 9999 BKN240/// 14/03 Q0997
LIBP 271920Z AUTO 24013KT 9999 FEW240/// 14/03 Q0997
LIBP 271850Z AUTO 23011KT 9999 BKN240/// 14/04 Q0997
LIBP 271820Z AUTO 22012KT 200V260 9999 BKN240/// 13/04 Q0997
LIBP 271750Z AUTO 20012KT 9999 BKN230/// 14/04 Q0997
LIBP 271720Z AUTO 22013KT 9999 SCT220/// 13/04 Q0997
LIBP 271650Z AUTO 21017KT 9999 NCD 14/05 Q0997
LIBP 271620Z AUTO 22013KT 9999 BKN180/// 13/05 Q0997
LIBP 271550Z AUTO 23011KT 9999 SCT160/// BKN180/// 14/05 Q0997
LIBP 271520Z AUTO 23011KT 9999 BKN160/// 15/05 Q0996
LIBP 271450Z AUTO 23010KT 9999 FEW085/// BKN160/// 16/06 Q0996
LIBP 271420Z AUTO 23009KT 9999 FEW088/// SCT110/// BKN160/// 17/06 Q0996
LIBP 271350Z AUTO 22010KT 9999 BKN110/// BKN180/// 16/06 Q0996
LIBP 271320Z AUTO 24009KT 9999 BKN180/// 16/05 Q0996
LIBP 271250Z AUTO 23014KT 9999 BKN190/// 16/06 Q0996
LIBP 271220Z AUTO 24016KT 9999 BKN200/// 16/05 Q0996
LIBP 271150Z AUTO 25015KT 9999 BKN190/// 16/05 Q0996
LIBP 271120Z AUTO 25014KT 9999 NCD 17/06 Q0996
LIBP 271050Z AUTO 24011KT 9999 SCT093/// 16/06 Q0997
LIBP 271020Z AUTO 24011KT 9999 SCT100/// 16/06 Q0997
LIBP 270950Z AUTO 18003KT 150V210 9999 BKN100/// 16/06 Q0997
LIBP 270920Z AUTO 17005KT 140V200 9999 FEW095/// 14/06 Q0997
LIBP 270850Z AUTO 22010KT 9999 BKN110/// 15/06 Q0997
LIBP 270820Z AUTO 25013KT 9999 BKN100/// BKN120/// 15/05 Q0997
LIBP 270750Z AUTO 26010KT 9999 NCD 15/05 Q0997
LIBP 270720Z AUTO 21007KT 9999 NCD 13/06 Q0997
LIBP 270650Z AUTO 22008KT 9999 NCD 12/05 Q0997
LIBP 270620Z AUTO 24012KT 9999 NCD 13/04 Q0997
LIBP 270550Z AUTO 24012KT 9999 NCD 13/04 Q0997
LIBP 270520Z AUTO 24011KT 9999 NCD 14/03 Q0997
LIBP 270450Z AUTO 23008KT 9999 NCD 14/03 Q0997
LIBP 270420Z AUTO 23008KT 9999 FEW079/// 14/03 Q0997
LIBP 270350Z AUTO 21009KT 9999 FEW079/// 13/04 Q0997
LIBP 270320Z AUTO 21013KT 9999 SCT080/// 14/04 Q0997
LIBP 270250Z AUTO 19008KT 9999 FEW083/// SCT250/// 14/04 Q0997
LIBP 270220Z AUTO 19008KT 160V220 9999 SCT230/// 14/04 Q0997
LIBP 270150Z AUTO 21010KT 9999 FEW076/// 14/05 Q0997
LIBP 270120Z AUTO 22014KT 9999 FEW073/// SCT240/// 14/05 Q0997
LIBP 270050Z AUTO 22016KT 9999 BKN071/// 14/05 Q0997
LIBP 270020Z AUTO 22016KT 9999 FEW083/// 14/05 Q0996
LIBP 262350Z AUTO 23018KT 9999 FEW170/// BKN220/// 14/05 Q0996
LIBP 262320Z AUTO 23021KT 9999 BKN210/// 14/05 Q0996
LIBP 262250Z AUTO 23017KT 9999 BKN220/// 14/05 Q0996
LIBP 262220Z AUTO 22017KT 9999 BKN200/// 14/05 Q0996
LIBP 262150Z AUTO 23013KT 9999 BKN180/// BKN220/// 13/05 Q0996
LIBP 262120Z AUTO 22017KT 9999 FEW150/// SCT200/// 13/05 Q0995
LIBP 262050Z AUTO 23012KT 9999 SCT150/// 12/05 Q0996
LIBP 262020Z AUTO 23016KT 9999 SCT190/// 13/05 Q0996
LIBP 261950Z AUTO 23020KT 9999 NCD 12/05 Q0995
LIBP 261920Z AUTO 22019KT 9999 SCT098/// 12/06 Q0995
LIBP 261850Z AUTO 24012KT 9999 FEW110/// SCT120/// BKN150/// 13/06 Q0995
LIBP 261820Z AUTO 24011KT 210V270 9999 SCT210/// 12/06 Q0995
LIBP 261750Z AUTO 20010KT 9999 NCD 11/08 Q0995
LIBP 261720Z AUTO 23003KT 180V260 9999 FEW140/// 11/08 Q0995
LIBP 261650Z AUTO 23007KT 9999 FEW058/// SCT110/// 11/08 Q0995
LIBP 261620Z AUTO 22005KT 9999 -RA OVC075/// 11/09 Q0996
LIBP 261550Z AUTO 25005KT 200V300 9999 BKN100/// 11/09 Q0996
LIBP 261520Z AUTO 23004KT 9999 FEW140/// 11/09 Q0995
LIBP 261450Z AUTO 21006KT 9999 BKN078/// 12/09 Q0996
LIBP 261420Z AUTO 21008KT 9999 BKN066/// BKN092/// 13/09 Q0996
LIBP 261350Z AUTO 24006KT 190V290 9999 -RA OVC054/// 14/11 Q0997 RETSRA
LIBP 261320Z AUTO VRB03KT 9999 -RA BKN066/// 15/11 Q0997
LIBP 261250Z AUTO 07004KT 350V140 9999 BKN230/// 15/11 Q0996
LIBP 261220Z AUTO 11005KT 070V140 9999 FEW020/// SCT078/// BKN220/// 14/11 Q0996
LIBP 261150Z AUTO 10006KT 080V140 9999 FEW019/// BKN210/// 15/11 Q0997
LIBP 261120Z AUTO 08005KT 050V110 9999 FEW014/// BKN220/// 14/12 Q0997
LIBP 261050Z AUTO 09004KT 030V120 9999 FEW009/// 13/12 Q0998
LIBP 261020Z AUTO 08003KT 030V120 9999 FEW008/// SCT230/// 13/11 Q0998
LIBP 260950Z AUTO VRB01KT 9999 BKN010/// 12/11 Q0999
LIBP 260920Z AUTO 24003KT 200V280 9999 SCT008/// 12/12 Q0999
LIBP 260850Z AUTO 22005KT 8000 BKN008/// 11/11 Q0999
LIBP 260820Z AUTO 17003KT 130V230 6000 BKN009/// 11/11 Q0999
LIBP 260750Z AUTO 23004KT 190V250 5000 BR BKN009/// BKN190/// 10/10 Q0999
LIBP 260720Z AUTO 20004KT 4900 BR FEW009/// BKN220/// 09/09 Q0999
LIBP 260650Z AUTO VRB03KT 2900 R22/1200U BCFG BKN009 08/08 Q0999
LIBP 260620Z AUTO VRB02KT 0350 R22/0550D BCFG FEW004 SCT006 08/08 Q0999
LIBP 260550Z AUTO 19004KT 110V250 0200 R22/0600U FG VV004 08/08 Q0999
LIBP 260520Z AUTO VRB02KT 0150 R22/0550U FG VV001 07/07 Q0999
LIBP 260450Z AUTO VRB02KT 0050 R22/0275N FG VV001 08/08 Q0999
LIBP 260420Z AUTO VRB02KT 0100 R22/0375N FG VV002 10/10 Q0999
LIBP 260350Z AUTO 23003KT 0150 R22/0375N FG VV002 09/09 Q0999
LIBP 260320Z AUTO 20003KT 0350 R22/1200U FG SCT230 10/10 Q0999
LIBP 260250Z AUTO 24002KT 4500 BR FEW017/// BKN200/// 11/11 Q1000
LIBP 260220Z AUTO 21004KT 5000 BR BKN007/// 11/11 Q1000
LIBP 260150Z AUTO 24003KT 210V270 3100 BR OVC006/// 11/11 Q1001
LIBP 260120Z AUTO 24002KT 2400 BR OVC006/// 11/11 Q1001
LIBP 260050Z AUTO 26003KT 2200 -RA BR SCT007/// OVC067/// 11/11 Q1002
LIBP 260020Z AUTO 05002KT 1800 -RA BR FEW059/// OVC067/// 11/11 Q1002 RERA
LIBP 252350Z AUTO VRB02KT 1800 RA BR OVC063/// 11/11 Q1003
LIBP 252320Z AUTO 11003KT 2300 -RA BR OVC068/// 11/11 Q1003
LIBP 252250Z AUTO 25002KT 3000 -RA BR SCT072/// OVC086/// 11/11 Q1003
LIBP 252220Z AUTO VRB02KT 3500 -RA BR OVC079/// 11/11 Q1004
LIBP 252150Z AUTO VRB01KT 5000 -RA OVC080/// 11/11 Q1004
LIBP 252120Z AUTO 24003KT 3800 -RA BR OVC076/// 11/11 Q1005
LIBP 252050Z AUTO 24003KT 4600 -RA BR OVC067/// 11/11 Q1005
LIBP 252020Z AUTO 24004KT 6000 -RA OVC076/// 11/11 Q1005
LIBP 251950Z AUTO 22004KT 8000 FEW100/// OVC110/// 11/11 Q1006
LIBP 251920Z AUTO 25003KT 8000 -RA BKN080/// 11/11 Q1006
LIBP 251850Z AUTO VRB01KT 9999 -RA OVC074 11/11 Q1006 REDZ
LIBP 251820Z AUTO 22004KT 9999 FEW092/// BKN100/// 11/10 Q1006
LIBP 251750Z AUTO 27002KT 9999 SCT095/// BKN160/// BKN180/// 12/10 Q1006
LIBP 251720Z AUTO VRB01KT 9999 SCT099/// BKN180/// 12/10 Q1006
LIBP 251650Z AUTO VRB01KT 9999 SCT100/// BKN110/// BKN210/// 12/10 Q1006
LIBP 251620Z AUTO 02001KT 9999 BKN100/// BKN170/// 12/10 Q1006
LIBP 251550Z AUTO VRB01KT 9999 FEW110/// BKN180/// 13/10 Q1007
LIBP 251520Z AUTO 33003KT 9999 BKN110/// BKN160/// 13/10 Q1007
LIBP 251450Z AUTO VRB02KT 9999 FEW094/// BKN170/// 14/10 Q1007
LIBP 251420Z AUTO 09004KT 9999 FEW110/// BKN190/// 14/10 Q1007
LIBP 251350Z AUTO 07003KT 9999 FEW110/// SCT220/// 15/11 Q1007
LIBP 251320Z AUTO VRB02KT 9999 SCT110/// 15/10 Q1008
LIBP 251250Z AUTO VRB02KT 9999 BKN100/// 15/10 Q1008
LIBP 251220Z AUTO VRB02KT 9999 BKN080/// BKN110/// 15/10 Q1009
LIBP 251150Z AUTO 26004KT 160V300 9999 FEW075/// BKN089/// 14/10 Q1009
LIBP 251120Z AUTO 24003KT 200V280 9999 SCT075/// 15/09 Q1010
LIBP 251050Z AUTO 23003KT 180V290 9999 FEW100/// SCT120/// 14/09 Q1010
LIBP 251020Z AUTO VRB01KT 9999 FEW087/// BKN110/// 13/09 Q1011
LIBP 250950Z AUTO VRB02KT 9999 BKN084/// BKN110/// 12/10 Q1011
LIBP 250920Z AUTO VRB02KT 9999 FEW070/// BKN089/// BKN130/// 12/10 Q1012
LIBP 250850Z AUTO 24004KT 9999 BKN069/// 12/10 Q1012
LIBP 250820Z AUTO 21005KT 9999 BKN068/// BKN110/// 11/10 Q1012
LIBP 250750Z AUTO 24004KT 9999 OVC080/// 11/10 Q1013
LIBP 250720Z AUTO 24003KT 9999 FEW020/// BKN080/// 11/10 Q1013
LIBP 250650Z AUTO 22003KT 9999 FEW018/// BKN072/// 10/10 Q1013
LIBP 250620Z AUTO 23004KT 9000 FEW018/// BKN095/// 10/10 Q1013

Informazioni elaborate utilizzando, tra l’altro, dati e prodotti del Servizio Meteorologico dell’Aeronautica Militare pubblicati sul sito www.meteoam.it e della National Oceanic and Atmospheric Administration (NOAA)

Ultimi caricamenti...


MM81319 (EI-906) Esercito Italiano Agusta A129 Mangusta

 


MM81415 (EI-945) Esercito Italiano Agusta A129 Mangusta

 


D-CBBS Embraer 505 Phenom 300 PADAVIATION

Questo sito non utilizza cookie di profilazione. Il sito utilizza cookie tecnici, di analisi anonima di prima parte e di terze parti per servizi di social network.